createdAt,value
2023-10-26T00:00:55.799Z,6.40
2023-10-26T00:03:58.767Z,6.43
2023-10-26T00:07:02.107Z,6.27
2023-10-26T00:10:05.049Z,6.70
2023-10-26T00:13:08.882Z,6.65
2023-10-26T00:16:11.517Z,5.70
2023-10-26T00:19:14.041Z,6.67
2023-10-26T00:22:16.539Z,6.25
2023-10-26T00:25:19.046Z,7.13
2023-10-26T00:28:21.673Z,7.95
2023-10-26T00:31:24.434Z,6.83
2023-10-26T00:34:27.678Z,6.40
2023-10-26T00:37:30.147Z,7.07
2023-10-26T00:40:32.585Z,7.97
2023-10-26T00:43:35.473Z,7.50
2023-10-26T00:46:38.027Z,7.82
2023-10-26T00:49:44.010Z,7.03
2023-10-26T00:52:47.585Z,7.18
2023-10-26T00:55:52.438Z,7.30
2023-10-26T00:58:56.335Z,7.30
2023-10-26T01:01:59.687Z,6.78
2023-10-26T01:05:02.185Z,8.35
2023-10-26T01:08:05.312Z,7.37
2023-10-26T01:11:07.827Z,8.32
2023-10-26T01:14:11.945Z,8.13
2023-10-26T01:17:14.841Z,8.37
2023-10-26T01:20:19.316Z,7.73
2023-10-26T01:23:21.866Z,7.90
2023-10-26T01:26:24.871Z,7.25
2023-10-26T01:29:27.337Z,7.77
2023-10-26T01:32:29.813Z,9.37
2023-10-26T01:35:45.860Z,8.05
2023-10-26T01:38:48.423Z,7.60
2023-10-26T01:41:51.654Z,9.13
2023-10-26T01:44:54.129Z,7.67
2023-10-26T01:47:56.901Z,9.07
2023-10-26T01:50:59.360Z,6.78
2023-10-26T01:54:01.843Z,8.43
2023-10-26T01:57:04.549Z,8.70
2023-10-26T02:00:07.550Z,9.80
2023-10-26T02:03:14.702Z,10.15
2023-10-26T02:06:17.440Z,10.17
2023-10-26T02:09:19.938Z,7.37
2023-10-26T02:12:22.465Z,7.97
2023-10-26T02:15:25.293Z,8.68
2023-10-26T02:18:27.820Z,8.20
2023-10-26T02:21:30.331Z,8.07
2023-10-26T02:24:32.787Z,9.48
2023-10-26T02:27:35.893Z,8.73
2023-10-26T02:30:38.350Z,9.07
2023-10-26T02:33:40.806Z,8.60
2023-10-26T02:36:43.281Z,7.93
2023-10-26T02:39:46.222Z,8.32
2023-10-26T02:42:49.582Z,8.03
2023-10-26T02:46:06.202Z,9.40
2023-10-26T02:49:08.752Z,7.88
2023-10-26T02:52:11.120Z,8.45
2023-10-26T02:55:13.614Z,9.03
2023-10-26T02:58:16.009Z,7.20
2023-10-26T03:01:18.434Z,7.93
2023-10-26T03:04:20.975Z,7.70
2023-10-26T03:07:24.116Z,7.37
2023-10-26T03:10:27.214Z,8.17
2023-10-26T03:13:29.625Z,7.40
2023-10-26T03:16:33.668Z,7.47
2023-10-26T03:19:36.184Z,7.30
2023-10-26T03:22:38.639Z,6.68
2023-10-26T03:25:42.142Z,6.72
2023-10-26T03:28:44.712Z,7.32
2023-10-26T03:31:47.142Z,6.50
2023-10-26T03:34:53.646Z,7.10
2023-10-26T03:37:56.120Z,6.18
2023-10-26T03:40:58.567Z,6.97
2023-10-26T03:44:01.404Z,6.43
2023-10-26T03:47:03.883Z,7.60
2023-10-26T03:50:06.766Z,6.75
2023-10-26T03:53:09.218Z,6.18
2023-10-26T03:56:11.645Z,5.80
2023-10-26T03:59:14.013Z,5.77
2023-10-26T04:02:16.813Z,6.78
2023-10-26T04:05:19.327Z,7.22
2023-10-26T04:08:21.778Z,10.13
2023-10-26T04:11:25.737Z,9.50
2023-10-26T04:14:28.170Z,7.63
2023-10-26T04:17:30.643Z,7.45
2023-10-26T04:20:33.140Z,6.37
2023-10-26T04:23:35.568Z,7.47
2023-10-26T04:26:37.969Z,6.45
2023-10-26T04:29:40.373Z,6.88
2023-10-26T04:32:43.715Z,7.77
2023-10-26T04:35:48.013Z,7.27
2023-10-26T04:38:51.555Z,7.45
2023-10-26T04:41:54.021Z,8.15
2023-10-26T04:44:56.583Z,7.32
2023-10-26T04:48:00.109Z,6.93
2023-10-26T04:51:02.928Z,7.03
2023-10-26T04:54:05.533Z,7.18
2023-10-26T04:57:07.996Z,7.57
2023-10-26T05:00:11.445Z,6.83
2023-10-26T05:03:13.951Z,7.70
2023-10-26T05:06:16.675Z,6.80
2023-10-26T05:09:19.271Z,8.43
2023-10-26T05:12:21.809Z,7.20
2023-10-26T05:15:24.430Z,6.13
2023-10-26T05:18:27.037Z,6.53
2023-10-26T05:21:29.695Z,6.30
2023-10-26T05:24:32.394Z,6.77
2023-10-26T05:27:37.006Z,6.47
2023-10-26T05:30:40.078Z,7.65
2023-10-26T05:33:43.363Z,6.43
2023-10-26T05:36:45.780Z,7.60
2023-10-26T05:39:48.341Z,6.93
2023-10-26T05:42:51.022Z,5.57
2023-10-26T05:45:53.819Z,6.63
2023-10-26T05:48:56.260Z,6.07
2023-10-26T05:52:01.945Z,6.70
2023-10-26T05:55:04.892Z,6.35
2023-10-26T05:58:09.980Z,6.90
2023-10-26T06:01:12.420Z,5.70
2023-10-26T06:04:15.028Z,7.07
2023-10-26T06:07:18.593Z,7.88
2023-10-26T06:10:21.001Z,6.25
2023-10-26T06:13:23.392Z,5.60
2023-10-26T06:16:25.863Z,6.68
2023-10-26T06:19:29.094Z,6.13
2023-10-26T06:22:31.548Z,5.57
2023-10-26T06:25:40.215Z,6.10
2023-10-26T06:28:42.623Z,5.05
2023-10-26T06:31:45.722Z,6.43
2023-10-26T06:34:48.142Z,3.97
2023-10-26T06:37:50.604Z,5.00
2023-10-26T06:40:53.025Z,3.80
2023-10-26T06:43:57.112Z,4.45
2023-10-26T06:46:59.586Z,5.72
2023-10-26T06:50:02.035Z,4.93
2023-10-26T06:53:04.518Z,5.15
2023-10-26T06:56:13.714Z,4.70
2023-10-26T06:59:16.171Z,4.90
2023-10-26T07:02:18.649Z,4.88
2023-10-26T07:05:21.110Z,5.35
2023-10-26T07:08:23.865Z,5.03
2023-10-26T07:11:26.838Z,5.20
2023-10-26T07:14:30.691Z,4.63
2023-10-26T07:17:33.175Z,6.15
2023-10-26T07:20:38.243Z,5.15
2023-10-26T07:23:40.677Z,5.65
2023-10-26T07:26:43.130Z,5.37
2023-10-26T07:29:45.770Z,5.80
2023-10-26T07:32:48.456Z,6.68
2023-10-26T07:35:53.103Z,4.57
2023-10-26T07:39:46.674Z,5.43
2023-10-26T07:42:17.929Z,4.23
2023-10-26T07:45:20.433Z,4.43
2023-10-26T07:48:22.942Z,5.63
2023-10-26T07:51:25.386Z,5.65
2023-10-26T07:54:27.969Z,5.22
2023-10-26T07:57:30.758Z,6.23
2023-10-26T08:00:33.276Z,6.07
2023-10-26T08:03:35.815Z,5.03
2023-10-26T08:06:38.222Z,4.72
2023-10-26T08:09:40.703Z,4.13
2023-10-26T08:12:43.165Z,4.33
2023-10-26T08:16:09.980Z,3.97
2023-10-26T08:19:08.132Z,5.32
2023-10-26T08:22:11.835Z,5.75
2023-10-26T08:25:18.891Z,8.40
2023-10-26T08:28:24.340Z,8.00
2023-10-26T08:31:27.158Z,6.72
2023-10-26T08:34:29.785Z,5.85
2023-10-26T08:37:32.232Z,5.13
2023-10-26T08:40:34.726Z,5.47
2023-10-26T08:43:37.679Z,5.43
2023-10-26T08:46:41.842Z,4.75
2023-10-26T08:49:50.285Z,7.35
2023-10-26T08:52:58.777Z,5.53
2023-10-26T08:56:01.761Z,5.07
2023-10-26T08:59:04.727Z,5.60
2023-10-26T09:02:07.244Z,5.88
2023-10-26T09:05:11.727Z,6.13
2023-10-26T09:08:18.602Z,5.57
2023-10-26T09:11:23.622Z,5.93
2023-10-26T09:14:26.434Z,9.00
2023-10-26T09:17:30.973Z,7.18
2023-10-26T09:20:33.927Z,8.07
2023-10-26T09:23:38.530Z,6.88
2023-10-26T09:26:41.070Z,6.10
2023-10-26T09:29:44.568Z,6.13
2023-10-26T09:32:49.435Z,6.30
2023-10-26T09:35:52.487Z,6.82
2023-10-26T09:38:56.491Z,5.60
2023-10-26T09:42:00.376Z,6.88
2023-10-26T09:45:02.852Z,6.80
2023-10-26T09:48:06.432Z,13.68
2023-10-26T09:51:11.676Z,21.60
2023-10-26T09:54:15.208Z,19.10
2023-10-26T09:57:25.323Z,25.45
2023-10-26T10:00:35.688Z,7.20
2023-10-26T10:03:45.359Z,15.73
2023-10-26T10:07:02.044Z,7.05
2023-10-26T10:10:07.017Z,6.65
2023-10-26T10:13:09.537Z,7.63
2023-10-26T10:16:37.153Z,6.90
2023-10-26T10:19:44.594Z,7.05
2023-10-26T10:22:54.821Z,7.05
2023-10-26T10:26:08.225Z,7.40
2023-10-26T10:29:20.527Z,8.10
2023-10-26T10:32:50.745Z,6.27
2023-10-26T10:36:03.667Z,7.80
2023-10-26T10:39:23.700Z,8.77
2023-10-26T10:42:27.193Z,7.57
2023-10-26T10:48:55.360Z,7.63
2023-10-26T10:51:58.647Z,6.50
2023-10-26T10:55:05.288Z,8.98
2023-10-26T10:58:08.374Z,10.10
2023-10-26T11:01:10.923Z,7.45
2023-10-26T11:04:14.754Z,6.87
2023-10-26T11:07:17.607Z,7.57
2023-10-26T11:10:20.455Z,7.35
2023-10-26T11:13:23.532Z,8.82
2023-10-26T11:16:26.502Z,9.02
2023-10-26T11:19:28.924Z,9.50
2023-10-26T11:22:31.635Z,8.90
2023-10-26T11:25:35.419Z,7.50
2023-10-26T11:28:37.939Z,6.75
2023-10-26T11:31:42.723Z,6.70
2023-10-26T11:35:11.975Z,6.57
2023-10-26T11:38:14.394Z,7.80
2023-10-26T11:41:26.850Z,6.82
2023-10-26T11:44:31.088Z,6.38
2023-10-26T11:47:51.687Z,6.50
2023-10-26T11:50:54.494Z,5.47
2023-10-26T11:53:58.253Z,5.88
2023-10-26T11:57:00.803Z,5.50
2023-10-26T12:00:07.213Z,5.07
2023-10-26T12:03:15.151Z,6.72
2023-10-26T12:06:17.578Z,6.60
2023-10-26T12:09:20.233Z,7.60
2023-10-26T12:12:22.672Z,6.07
2023-10-26T12:15:25.240Z,5.85
2023-10-26T12:18:28.275Z,5.88
2023-10-26T12:21:30.857Z,5.60
2023-10-26T12:24:34.246Z,6.07
2023-10-26T12:28:20.645Z,6.43
2023-10-26T12:30:59.128Z,5.53
2023-10-26T12:34:01.795Z,6.15
2023-10-26T12:37:05.422Z,5.27
2023-10-26T12:40:09.459Z,5.13
2023-10-26T12:43:11.949Z,5.30
2023-10-26T12:46:14.445Z,4.80
2023-10-26T12:49:16.922Z,12.20
2023-10-26T12:52:19.359Z,5.80
2023-10-26T12:55:24.784Z,5.40
2023-10-26T12:58:27.282Z,6.03
2023-10-26T13:01:29.759Z,5.38
2023-10-26T13:04:35.129Z,4.70
2023-10-26T13:07:37.610Z,5.03
2023-10-26T13:10:40.198Z,4.93
2023-10-26T13:13:42.924Z,4.97
2023-10-26T13:16:57.159Z,4.32
2023-10-26T13:20:01.077Z,9.02
2023-10-26T13:23:03.539Z,9.47
2023-10-26T13:26:05.949Z,6.75
2023-10-26T13:29:08.420Z,4.97
2023-10-26T13:32:13.015Z,4.97
2023-10-26T13:35:15.509Z,6.18
2023-10-26T13:38:17.890Z,5.33
2023-10-26T13:41:24.488Z,4.30
2023-10-26T13:44:26.974Z,5.15
2023-10-26T13:47:29.401Z,4.57
2023-10-26T13:50:31.826Z,5.60
2023-10-26T13:53:34.261Z,4.77
2023-10-26T13:56:36.684Z,4.43
2023-10-26T13:59:40.460Z,3.53
2023-10-26T14:02:43.121Z,12.57
2023-10-26T14:05:52.739Z,9.30
2023-10-26T14:08:59.272Z,12.17
2023-10-26T14:12:04.470Z,4.82
2023-10-26T14:15:07.394Z,3.50
2023-10-26T14:18:09.974Z,3.72
2023-10-26T14:21:12.432Z,4.47
2023-10-26T14:24:14.865Z,4.03
2023-10-26T14:27:17.289Z,3.38
2023-10-26T14:30:19.965Z,3.53
2023-10-26T14:33:22.799Z,3.15
2023-10-26T14:36:25.208Z,3.67
2023-10-26T14:39:28.394Z,3.40
2023-10-26T14:42:30.934Z,3.42
2023-10-26T14:45:36.179Z,2.97
2023-10-26T14:48:39.217Z,2.95
2023-10-26T14:51:45.659Z,3.58
2023-10-26T14:54:48.196Z,3.10
2023-10-26T14:57:51.028Z,6.45
2023-10-26T15:00:53.802Z,3.25
2023-10-26T15:03:56.935Z,4.25
2023-10-26T15:07:01.282Z,4.55
2023-10-26T15:10:20.769Z,3.20
2023-10-26T15:13:26.506Z,3.70
2023-10-26T15:16:29.148Z,4.47
2023-10-26T15:19:34.071Z,3.80
2023-10-26T15:22:36.460Z,3.65
2023-10-26T15:25:38.953Z,3.13
2023-10-26T15:28:41.408Z,3.35
2023-10-26T15:31:48.251Z,3.70
2023-10-26T15:34:50.720Z,3.25
2023-10-26T15:37:53.311Z,2.75
2023-10-26T15:41:05.410Z,5.60
2023-10-26T15:44:07.808Z,6.30
2023-10-26T15:47:10.341Z,5.03
2023-10-26T15:50:12.908Z,5.50
2023-10-26T15:53:15.424Z,6.03
2023-10-26T15:56:17.849Z,4.77
2023-10-26T15:59:20.316Z,5.38
2023-10-26T16:02:22.925Z,6.25
2023-10-26T16:05:25.425Z,4.97
2023-10-26T16:08:27.804Z,4.68
2023-10-26T16:11:30.236Z,5.30
2023-10-26T16:14:32.624Z,4.60
2023-10-26T16:17:37.798Z,4.85
2023-10-26T16:20:40.297Z,4.30
2023-10-26T16:23:43.423Z,5.47
2023-10-26T16:26:45.900Z,5.10
2023-10-26T16:29:48.969Z,5.40
2023-10-26T16:32:51.406Z,7.32
2023-10-26T16:35:59.001Z,9.60
2023-10-26T16:39:01.400Z,8.75
2023-10-26T16:42:04.114Z,6.63
2023-10-26T16:45:06.830Z,4.47
2023-10-26T16:48:09.241Z,4.10
2023-10-26T16:51:11.712Z,3.13
2023-10-26T16:54:14.203Z,4.00
2023-10-26T16:57:16.783Z,3.80
2023-10-26T17:00:19.672Z,6.13
2023-10-26T17:03:22.334Z,9.07
2023-10-26T17:06:25.057Z,8.43
2023-10-26T17:09:28.691Z,9.32
2023-10-26T17:12:31.385Z,9.00
2023-10-26T17:15:33.801Z,12.15
2023-10-26T17:18:36.443Z,9.60
2023-10-26T17:21:38.910Z,8.27
2023-10-26T17:24:42.034Z,8.47
2023-10-26T17:27:44.504Z,9.40
2023-10-26T17:30:47.243Z,7.53
2023-10-26T17:33:50.204Z,6.57
2023-10-26T17:36:55.821Z,8.38
2023-10-26T17:39:58.341Z,9.93
2023-10-26T17:43:01.490Z,9.30
2023-10-26T17:46:04.459Z,10.45
2023-10-26T17:49:07.807Z,8.82
2023-10-26T17:52:10.292Z,9.15
2023-10-26T17:55:14.637Z,8.80
2023-10-26T17:58:17.275Z,9.27
2023-10-26T18:01:20.972Z,8.50
2023-10-26T18:04:23.783Z,8.70
2023-10-26T18:07:26.509Z,9.57
2023-10-26T18:10:30.229Z,11.07
2023-10-26T18:13:34.353Z,10.90
2023-10-26T18:16:36.992Z,9.73
2023-10-26T18:19:39.515Z,9.23
2023-10-26T18:22:42.008Z,7.15
2023-10-26T18:25:44.637Z,8.67
2023-10-26T18:28:47.414Z,7.43
2023-10-26T18:31:49.959Z,6.93
2023-10-26T18:34:52.722Z,15.63
2023-10-26T18:37:56.429Z,11.55
2023-10-26T18:41:00.112Z,7.90
2023-10-26T18:44:02.596Z,7.57
2023-10-26T18:47:05.540Z,8.63
2023-10-26T18:50:08.246Z,10.07
2023-10-26T18:53:10.709Z,8.35
2023-10-26T18:56:15.313Z,8.93
2023-10-26T18:59:17.723Z,9.38
2023-10-26T19:02:20.375Z,8.82
2023-10-26T19:05:22.768Z,8.67
2023-10-26T19:08:25.179Z,18.77
2023-10-26T19:11:29.057Z,17.63
2023-10-26T19:14:32.998Z,20.95
2023-10-26T19:17:35.428Z,16.60
2023-10-26T19:20:43.949Z,10.77
2023-10-26T19:23:46.723Z,17.10
2023-10-26T19:26:49.239Z,16.75
2023-10-26T19:29:51.696Z,18.40
2023-10-26T19:32:54.314Z,16.80
2023-10-26T19:35:57.096Z,10.98
2023-10-26T19:38:59.861Z,8.55
2023-10-26T19:42:02.526Z,10.52
2023-10-26T19:45:06.782Z,11.13
2023-10-26T19:48:09.526Z,17.47
2023-10-26T19:51:12.824Z,21.60
2023-10-26T19:54:15.282Z,14.52
2023-10-26T19:57:19.009Z,14.32
2023-10-26T20:00:21.663Z,25.50
2023-10-26T20:03:24.312Z,18.38
2023-10-26T20:06:27.305Z,15.27
2023-10-26T20:09:30.816Z,18.52
2023-10-26T20:12:33.454Z,17.27
2023-10-26T20:15:36.653Z,18.17
2023-10-26T20:18:40.238Z,8.65
2023-10-26T20:21:43.006Z,8.13
2023-10-26T20:24:49.030Z,6.82
2023-10-26T20:27:51.632Z,6.10
2023-10-26T20:30:55.252Z,6.65
2023-10-26T20:33:59.205Z,6.50
2023-10-26T20:37:02.886Z,5.72
2023-10-26T20:40:06.179Z,6.63
2023-10-26T20:43:09.415Z,4.87
2023-10-26T20:46:12.942Z,5.13
2023-10-26T20:49:15.709Z,4.68
2023-10-26T20:52:18.200Z,4.47
2023-10-26T20:55:20.716Z,10.77
2023-10-26T20:58:23.191Z,6.05
2023-10-26T21:01:25.833Z,4.78
2023-10-26T21:04:28.263Z,5.10
2023-10-26T21:07:30.662Z,5.23
2023-10-26T21:10:35.999Z,5.33
2023-10-26T21:13:38.575Z,7.90
2023-10-26T21:16:43.320Z,5.55
2023-10-26T21:19:46.052Z,5.30
2023-10-26T21:22:48.582Z,5.67
2023-10-26T21:25:50.996Z,5.43
2023-10-26T21:28:55.427Z,4.78
2023-10-26T21:31:58.024Z,5.93
2023-10-26T21:35:00.594Z,5.00
2023-10-26T21:38:03.988Z,5.70
2023-10-26T21:41:06.708Z,6.78
2023-10-26T21:44:09.176Z,4.70
2023-10-26T21:47:11.646Z,5.10
2023-10-26T21:50:14.202Z,8.20
2023-10-26T21:53:18.020Z,10.90
2023-10-26T21:56:20.670Z,7.95
2023-10-26T21:59:23.109Z,7.57
2023-10-26T22:02:26.178Z,9.15
2023-10-26T22:05:29.239Z,9.23
2023-10-26T22:08:31.656Z,9.03
2023-10-26T22:11:34.131Z,10.23
2023-10-26T22:14:36.544Z,11.27
2023-10-26T22:17:39.352Z,7.85
2023-10-26T22:20:41.806Z,9.17
2023-10-26T22:23:44.204Z,10.15
2023-10-26T22:26:46.673Z,8.48
2023-10-26T22:29:49.143Z,12.18
2023-10-26T22:32:51.577Z,8.27
2023-10-26T22:35:54.554Z,7.07
2023-10-26T22:38:57.059Z,10.02
2023-10-26T22:41:59.480Z,8.02
2023-10-26T22:45:02.621Z,16.67
2023-10-26T22:48:05.440Z,10.23
2023-10-26T22:51:07.838Z,9.35
2023-10-26T22:54:10.273Z,8.85
2023-10-26T22:57:12.707Z,6.65
2023-10-26T23:00:15.416Z,9.03
2023-10-26T23:03:17.909Z,8.75
2023-10-26T23:06:20.668Z,8.30
2023-10-26T23:09:23.127Z,6.90
2023-10-26T23:12:25.702Z,6.20
2023-10-26T23:15:28.170Z,6.10
2023-10-26T23:18:30.622Z,9.05
2023-10-26T23:21:33.565Z,11.00
2023-10-26T23:24:39.805Z,7.57
2023-10-26T23:27:42.219Z,9.32
2023-10-26T23:30:44.675Z,7.93
2023-10-26T23:33:47.668Z,8.90
2023-10-26T23:36:50.497Z,9.47
2023-10-26T23:39:52.945Z,9.73
2023-10-26T23:42:55.393Z,9.23
2023-10-26T23:45:59.148Z,7.63
2023-10-26T23:49:01.669Z,8.40
2023-10-26T23:52:04.318Z,8.93
2023-10-26T23:55:07.311Z,7.72
2023-10-26T23:58:09.957Z,8.57
